Main page
METAR-TAF:

METAR-TAF

Airports :

Henderson City-County Airport

Henderson, Kentucky, United States

latitude: 37-49N, longitude: 087-41W, elevation: 384 ft

Current weather observation

The report was made 52 minutes ago, at 02:56 UTC
Wind 6 mph from the South
Temperature 39°F
Humidity 70%
Pressure 29.79 in. Hg
Visibility: 10 miles
Broken clouds at a height of 9500 ft

METAR: KEHR 240256Z AUTO 19005KT 10SM BKN095 04/M01 A2979 RMK AO2 SLP088 60001 T00391006 56006

Time: 21:48 (03:48 UTC)


TAF: missing

Weather observations and forecasts of more than 4000 airports (METAR and TAF reports).

The available stations are represented by yellow and red dots on the map.

Hover mouse over dot to see the name of the station.

Then click to see weather observations and forecasts.

To change the map : click on the green buttons with a black cross to zoom in, on the green button with a dash to zoom out, or on the green arrows for adjacent maps.


METAR-TAF: